createdAt,value
2023-07-11T00:01:28.318Z,101579.53
2023-07-11T00:03:56.990Z,101579.50
2023-07-11T00:06:25.436Z,101578.59
2023-07-11T00:08:55.173Z,101585.56
2023-07-11T00:11:23.650Z,101580.31
2023-07-11T00:13:52.203Z,101576.78
2023-07-11T00:16:21.865Z,101581.19
2023-07-11T00:18:50.489Z,101561.91
2023-07-11T00:21:18.896Z,101574.16
2023-07-11T00:23:47.563Z,101575.91
2023-07-11T00:26:18.252Z,101568.00
2023-07-11T00:28:46.540Z,101566.25
2023-07-11T00:31:14.930Z,101577.66
2023-07-11T00:33:43.482Z,101575.88
2023-07-11T00:36:11.792Z,101554.81
2023-07-11T00:38:40.151Z,101568.00
2023-07-11T00:41:09.907Z,101563.63
2023-07-11T00:43:39.724Z,101560.13
2023-07-11T00:46:14.109Z,101563.59
2023-07-11T00:48:46.568Z,101558.38
2023-07-11T00:51:19.504Z,101553.16
2023-07-11T00:53:49.497Z,101566.31
2023-07-11T00:56:22.537Z,101570.72
2023-07-11T00:58:54.197Z,101558.50
2023-07-11T01:01:23.024Z,101573.44
2023-07-11T01:03:54.514Z,101562.91
2023-07-11T01:06:29.129Z,101548.00
2023-07-11T01:08:59.973Z,101543.59
2023-07-11T01:11:53.395Z,101567.34
2023-07-11T01:14:24.182Z,101559.44
2023-07-11T01:16:53.407Z,101570.00
2023-07-11T01:19:23.783Z,101577.88
2023-07-11T01:21:54.193Z,101575.28
2023-07-11T01:24:22.650Z,101571.78
2023-07-11T01:26:50.937Z,101570.91
2023-07-11T01:29:20.542Z,101535.84
2023-07-11T01:31:48.994Z,101563.06
2023-07-11T01:34:17.358Z,101564.81
2023-07-11T01:36:45.676Z,101563.97
2023-07-11T01:39:15.530Z,101560.47
2023-07-11T01:41:43.853Z,101543.84
2023-07-11T01:44:13.570Z,101564.00
2023-07-11T01:46:42.166Z,101560.53
2023-07-11T01:49:10.621Z,101550.88
2023-07-11T01:51:38.964Z,101550.03
2023-07-11T01:54:07.421Z,101555.31
2023-07-11T01:56:39.140Z,101556.22
2023-07-11T01:59:07.687Z,101549.19
2023-07-11T02:01:36.506Z,101559.72
2023-07-11T02:04:05.012Z,101561.50
2023-07-11T02:06:33.410Z,101559.75
2023-07-11T02:09:03.598Z,101554.50
2023-07-11T02:11:32.719Z,101554.50
2023-07-11T02:14:02.520Z,101540.47
2023-07-11T02:16:31.041Z,101551.88
2023-07-11T02:18:59.618Z,101548.38
2023-07-11T02:21:48.844Z,101533.47
2023-07-11T02:24:19.302Z,101558.91
2023-07-11T02:26:48.183Z,101562.44
2023-07-11T02:29:18.281Z,101558.91
2023-07-11T02:31:49.554Z,101557.19
2023-07-11T02:34:18.038Z,101558.06
2023-07-11T02:36:46.368Z,101551.94
2023-07-11T02:39:14.736Z,101547.56
2023-07-11T02:41:43.169Z,101551.94
2023-07-11T02:44:12.249Z,101550.19
2023-07-11T02:46:41.999Z,101548.41
2023-07-11T02:49:11.903Z,101552.78
2023-07-11T02:51:40.771Z,101551.91
2023-07-11T02:54:09.369Z,101545.78
2023-07-11T02:56:39.094Z,101550.16
2023-07-11T02:59:07.462Z,101530.88
2023-07-11T03:01:36.899Z,101537.88
2023-07-11T03:04:06.955Z,101523.84
2023-07-11T03:06:35.332Z,101543.13
2023-07-11T03:09:03.748Z,101548.41
2023-07-11T03:11:32.136Z,101543.13
2023-07-11T03:14:00.445Z,101547.50
2023-07-11T03:16:28.784Z,101544.88
2023-07-11T03:18:57.132Z,101538.69
2023-07-11T03:21:26.735Z,101546.59
2023-07-11T03:23:55.050Z,101548.28
2023-07-11T03:26:25.186Z,101542.13
2023-07-11T03:28:53.532Z,101543.00
2023-07-11T03:31:22.846Z,101543.81
2023-07-11T03:33:51.395Z,101538.56
2023-07-11T03:36:21.052Z,101541.16
2023-07-11T03:38:50.826Z,101541.13
2023-07-11T03:41:19.175Z,101542.84
2023-07-11T03:43:47.591Z,101541.06
2023-07-11T03:46:15.964Z,101543.69
2023-07-11T03:48:44.279Z,101535.75
2023-07-11T03:51:12.629Z,101544.50
2023-07-11T03:53:40.929Z,101546.25
2023-07-11T03:56:11.053Z,101526.88
2023-07-11T03:58:39.551Z,101537.38
2023-07-11T04:01:07.911Z,101530.31
2023-07-11T04:03:36.348Z,101534.63
2023-07-11T04:06:05.256Z,101537.25
2023-07-11T04:08:33.766Z,101530.19
2023-07-11T04:11:02.414Z,101531.88
2023-07-11T04:13:32.225Z,101513.44
2023-07-11T04:16:00.822Z,101528.28
2023-07-11T04:18:29.208Z,101522.09
2023-07-11T04:20:57.451Z,101524.66
2023-07-11T04:23:25.938Z,101516.69
2023-07-11T04:25:55.612Z,101520.97
2023-07-11T04:28:24.012Z,101509.53
2023-07-11T04:30:53.804Z,101512.97
2023-07-11T04:33:22.215Z,101515.53
2023-07-11T04:35:50.713Z,101511.09
2023-07-11T04:38:19.058Z,101513.59
2023-07-11T04:40:47.698Z,101511.72
2023-07-11T04:43:16.150Z,101509.00
2023-07-11T04:45:44.616Z,101511.53
2023-07-11T04:48:14.432Z,101508.72
2023-07-11T04:50:42.807Z,101509.53
2023-07-11T04:53:11.106Z,101505.06
2023-07-11T04:55:40.093Z,101513.69
2023-07-11T04:58:08.462Z,101510.13
2023-07-11T05:00:37.181Z,101514.38
2023-07-11T05:03:05.746Z,101507.19
2023-07-11T05:05:37.347Z,101505.41
2023-07-11T05:08:06.094Z,101508.75
2023-07-11T05:10:34.436Z,101508.63
2023-07-11T05:13:02.885Z,101502.25
2023-07-11T05:15:31.270Z,101497.66
2023-07-11T05:17:59.708Z,101486.06
2023-07-11T05:20:28.193Z,101492.03
2023-07-11T05:22:57.885Z,101490.94
2023-07-11T05:25:26.331Z,101486.44
2023-07-11T05:27:54.664Z,101490.75
2023-07-11T05:30:22.933Z,101483.69
2023-07-11T05:32:51.823Z,101486.28
2023-07-11T05:35:20.188Z,101487.06
2023-07-11T05:37:48.511Z,101489.63
2023-07-11T05:40:22.986Z,101497.50
2023-07-11T05:42:53.345Z,101501.09
2023-07-11T05:45:21.645Z,101500.31
2023-07-11T05:47:49.961Z,101498.69
2023-07-11T05:50:18.417Z,101507.63
2023-07-11T05:52:46.908Z,101502.34
2023-07-11T05:55:15.503Z,101507.69
2023-07-11T05:57:45.285Z,101483.03
2023-07-11T06:00:14.877Z,101490.81
2023-07-11T06:02:43.244Z,101475.03
2023-07-11T06:05:11.754Z,101493.31
2023-07-11T06:07:40.462Z,101481.06
2023-07-11T06:10:09.707Z,101500.25
2023-07-11T06:12:38.302Z,101503.69
2023-07-11T06:15:09.156Z,101491.28
2023-07-11T06:17:37.606Z,101493.09
2023-07-11T06:20:10.361Z,101492.25
2023-07-11T06:22:38.945Z,101491.47
2023-07-11T06:25:08.531Z,101487.97
2023-07-11T06:27:36.963Z,101487.94
2023-07-11T06:30:07.841Z,101490.59
2023-07-11T06:32:36.379Z,101491.44
2023-07-11T06:35:05.364Z,101477.28
2023-07-11T06:37:33.769Z,101487.84
2023-07-11T06:40:02.100Z,101473.78
2023-07-11T06:42:32.123Z,101472.94
2023-07-11T06:45:01.456Z,101464.28
2023-07-11T06:47:35.673Z,101471.06
2023-07-11T06:50:04.248Z,101460.38
2023-07-11T06:52:33.098Z,101462.81
2023-07-11T06:55:01.498Z,101468.81
2023-07-11T06:57:32.552Z,101460.75
2023-07-11T07:00:00.920Z,101455.41
2023-07-11T07:02:29.397Z,101453.53
2023-07-11T07:04:59.324Z,101451.56
2023-07-11T07:07:28.030Z,101460.16
2023-07-11T07:09:56.716Z,101459.97
2023-07-11T07:12:26.459Z,101452.06
2023-07-11T07:14:54.845Z,101459.00
2023-07-11T07:17:23.355Z,101463.47
2023-07-11T07:19:54.518Z,101463.50
2023-07-11T07:22:24.891Z,101458.28
2023-07-11T07:24:53.224Z,101451.19
2023-07-11T07:27:28.490Z,101446.69
2023-07-11T07:29:57.867Z,101452.63
2023-07-11T07:32:26.260Z,101447.19
2023-07-11T07:34:54.770Z,101441.72
2023-07-11T07:37:24.835Z,101440.75
2023-07-11T07:39:53.343Z,101436.13
2023-07-11T07:42:21.985Z,101433.19
2023-07-11T07:44:52.361Z,101436.38
2023-07-11T07:47:21.240Z,101434.28
2023-07-11T07:49:55.260Z,101429.50
2023-07-11T07:52:26.455Z,101423.31
2023-07-11T07:55:09.231Z,101424.41
2023-07-11T07:57:38.481Z,101411.34
2023-07-11T08:00:08.088Z,101401.78
2023-07-11T08:02:37.110Z,101413.16
2023-07-11T08:05:05.958Z,101409.41
2023-07-11T08:07:36.208Z,101412.69
2023-07-11T08:10:04.811Z,101416.97
2023-07-11T08:12:33.392Z,101415.56
2023-07-11T08:15:01.705Z,101417.66
2023-07-11T08:17:33.972Z,101410.75
2023-07-11T08:20:02.573Z,101414.53
2023-07-11T08:22:32.784Z,101406.31
2023-07-11T08:25:02.585Z,101390.78
2023-07-11T08:27:32.002Z,101388.41
2023-07-11T08:30:00.340Z,101384.28
2023-07-11T08:32:29.577Z,101383.34
2023-07-11T08:34:58.175Z,101383.16
2023-07-11T08:37:29.777Z,101380.66
2023-07-11T08:39:58.277Z,101389.91
2023-07-11T08:42:34.939Z,101397.59
2023-07-11T08:45:16.612Z,101384.59
2023-07-11T08:47:53.218Z,101390.84
2023-07-11T08:50:25.898Z,101395.66
2023-07-11T08:53:05.776Z,101395.63
2023-07-11T08:55:38.422Z,101388.06
2023-07-11T08:58:15.675Z,101380.88
2023-07-11T09:00:48.097Z,101389.91
2023-07-11T09:03:24.203Z,101394.63
2023-07-11T09:05:59.463Z,101387.34
2023-07-11T09:08:28.612Z,101386.44
2023-07-11T14:35:50.356Z,101196.69
2023-07-11T14:38:20.194Z,101200.06
2023-07-11T14:40:49.526Z,101218.63
2023-07-11T14:43:20.397Z,101211.13
2023-07-11T14:45:48.859Z,101207.50
2023-07-11T14:48:18.986Z,101209.22
2023-07-11T14:50:51.078Z,101205.97
2023-07-11T14:53:32.772Z,101197.59
2023-07-11T14:57:15.397Z,101209.19
2023-07-11T14:58:57.626Z,101205.50
2023-07-11T15:01:26.349Z,101207.34
2023-07-11T15:09:56.654Z,101204.00
2023-07-11T15:11:49.353Z,101191.25
2023-07-11T15:16:52.728Z,101211.88
2023-07-11T15:19:23.524Z,101206.97
2023-07-11T15:21:58.249Z,101204.34
2023-07-11T15:24:27.289Z,101206.22
2023-07-11T15:26:55.735Z,101206.66
2023-07-11T15:29:26.488Z,101210.91
2023-07-11T15:31:54.927Z,101204.47
2023-07-11T15:34:26.393Z,101209.47
2023-07-11T15:36:57.789Z,101202.38
2023-07-11T15:39:26.729Z,101213.09
2023-07-11T15:41:57.340Z,101208.53
2023-07-11T15:44:54.121Z,101179.28
2023-07-11T15:47:24.552Z,101173.78
2023-07-11T15:49:53.189Z,101189.94
2023-07-11T15:52:23.241Z,101199.47
2023-07-11T15:54:51.560Z,101194.19
2023-07-11T15:57:23.220Z,101183.84
2023-07-11T15:59:52.203Z,101183.84
2023-07-11T16:02:23.053Z,101184.81
2023-07-11T16:04:52.792Z,101186.53
2023-07-11T16:07:24.141Z,101190.16
2023-07-11T16:09:52.671Z,101173.47
2023-07-11T16:12:21.714Z,101181.09
2023-07-11T16:14:50.106Z,101184.59
2023-07-11T16:17:21.280Z,101177.16
2023-07-11T16:19:52.024Z,101175.97
2023-07-11T16:22:24.699Z,101178.16
2023-07-11T16:24:53.193Z,101178.09
2023-07-11T16:27:21.613Z,101174.41
2023-07-11T16:29:50.080Z,101178.72
2023-07-11T16:32:18.624Z,101173.59
2023-07-11T16:34:47.004Z,101170.66
2023-07-11T16:37:19.705Z,101168.69
2023-07-11T16:39:50.072Z,101178.72
2023-07-11T16:42:21.983Z,101165.34
2023-07-11T16:44:50.813Z,101163.22
2023-07-11T16:47:20.367Z,101172.03
2023-07-11T16:49:51.368Z,101163.44
2023-07-11T16:52:19.859Z,101170.00
2023-07-11T16:54:50.476Z,101173.31
2023-07-11T16:57:22.041Z,101173.81
2023-07-11T16:59:50.563Z,101161.31
2023-07-11T17:02:24.540Z,101167.63
2023-07-11T17:04:53.924Z,101162.00
2023-07-11T17:07:28.127Z,101175.16
2023-07-11T17:09:58.582Z,101175.19
2023-07-11T17:12:27.685Z,101173.50
2023-07-11T17:14:56.137Z,101168.16
2023-07-11T17:17:27.235Z,101167.47
2023-07-11T17:19:57.098Z,101163.72
2023-07-11T17:22:25.629Z,101160.44
2023-07-11T17:24:54.562Z,101163.28
2023-07-11T17:27:29.358Z,101164.31
2023-07-11T17:29:58.312Z,101153.75
2023-07-11T17:32:29.567Z,101153.91
2023-07-11T17:34:58.056Z,101150.69
2023-07-11T17:37:29.053Z,101155.16
2023-07-11T17:39:58.270Z,101145.63
2023-07-11T17:42:29.487Z,101143.88
2023-07-11T17:44:59.219Z,101148.53
2023-07-11T17:50:01.709Z,101140.81
2023-07-11T17:52:33.226Z,101143.66
2023-07-11T17:55:01.787Z,101147.53
2023-07-11T17:57:36.209Z,101140.59
2023-07-11T18:00:05.323Z,101143.47
2023-07-11T18:02:57.217Z,101142.78
2023-07-11T18:05:28.644Z,101142.25
2023-07-11T18:07:57.180Z,101147.78
2023-07-11T18:10:29.107Z,101145.50
2023-07-11T18:13:10.278Z,101146.81
2023-07-11T18:15:43.303Z,101127.31
2023-07-11T18:18:24.188Z,101147.56
2023-07-11T18:20:53.170Z,101149.72
2023-07-11T18:23:21.919Z,101142.06
2023-07-11T18:25:52.825Z,101147.69
2023-07-11T18:28:24.586Z,101140.25
2023-07-11T18:30:53.747Z,101152.88
2023-07-11T18:33:22.640Z,101147.03
2023-07-11T18:35:51.484Z,101149.22
2023-07-11T18:38:21.668Z,101149.59
2023-07-11T18:40:51.388Z,101146.34
2023-07-11T18:43:20.272Z,101151.94
2023-07-11T18:45:51.020Z,101124.31
2023-07-11T18:48:19.491Z,101141.94
2023-07-11T18:50:47.841Z,101134.34
2023-07-11T18:53:17.577Z,101138.09
2023-07-11T18:55:48.323Z,101131.47
2023-07-11T18:58:18.893Z,101137.09
2023-07-11T19:00:50.264Z,101137.41
2023-07-11T19:03:19.829Z,101134.97
2023-07-11T19:05:49.066Z,101133.50
2023-07-11T19:08:19.004Z,101134.66
2023-07-11T19:10:48.487Z,101135.81
2023-07-11T19:13:17.362Z,101137.00
2023-07-11T19:15:47.842Z,101121.53
2023-07-11T19:18:21.928Z,101137.47
2023-07-11T19:20:51.498Z,101095.91
2023-07-11T19:23:23.157Z,101139.72
2023-07-11T19:25:53.051Z,101139.16
2023-07-11T19:28:23.735Z,101153.53
2023-07-11T19:30:54.458Z,101127.56
2023-07-11T19:33:25.704Z,101146.84
2023-07-11T19:35:56.202Z,101141.72
2023-07-11T19:38:26.696Z,101149.91
2023-07-11T19:40:56.322Z,101139.50
2023-07-11T19:43:25.213Z,101150.28
2023-07-11T19:45:56.659Z,101140.72
2023-07-11T19:48:29.396Z,101147.03
2023-07-11T19:51:01.649Z,101139.31
2023-07-11T19:53:33.180Z,101148.19
2023-07-11T19:56:14.156Z,101149.19
2023-07-11T19:58:43.795Z,101137.13
2023-07-11T20:01:17.313Z,101156.50
2023-07-11T20:03:56.528Z,101075.66
2023-07-11T20:06:26.240Z,101145.09
2023-07-11T20:08:57.426Z,101150.47
2023-07-11T20:11:26.380Z,101151.44
2023-07-11T20:13:59.030Z,101145.44
2023-07-11T20:16:32.447Z,101147.19
2023-07-11T20:19:03.316Z,101144.91
2023-07-11T20:21:32.090Z,101151.00
2023-07-11T20:24:04.650Z,101151.19
2023-07-11T20:26:33.764Z,101156.66
2023-07-11T20:29:02.883Z,101150.56
2023-07-11T20:31:31.453Z,101145.38
2023-07-11T20:34:00.185Z,101141.06
2023-07-11T20:36:32.370Z,101115.94
2023-07-11T20:39:01.535Z,101138.56
2023-07-11T20:41:30.466Z,101134.25
2023-07-11T20:44:00.959Z,101136.97
2023-07-11T20:46:30.661Z,101132.69
2023-07-11T20:49:01.578Z,101115.44
2023-07-11T20:51:32.285Z,101117.16
2023-07-11T20:54:01.105Z,101117.31
2023-07-11T20:56:30.642Z,101135.81
2023-07-11T20:59:00.162Z,101137.63
2023-07-11T21:01:29.293Z,101134.19
2023-07-11T21:03:58.137Z,101122.03
2023-07-11T21:06:33.095Z,101129.06
2023-07-11T21:09:03.271Z,101124.78
2023-07-11T21:11:31.711Z,101110.13
2023-07-11T21:14:00.227Z,101125.78
2023-07-11T21:16:33.896Z,101131.16
2023-07-11T21:19:05.468Z,101114.75
2023-07-11T21:21:37.392Z,101131.34
2023-07-11T21:24:06.256Z,101121.84
2023-07-11T21:26:35.837Z,101136.78
2023-07-11T21:29:08.211Z,101096.63
2023-07-11T21:31:37.626Z,101129.91
2023-07-11T21:34:06.959Z,101125.59
2023-07-11T21:36:36.945Z,101123.88
2023-07-11T21:39:07.174Z,101126.63
2023-07-11T21:41:37.012Z,101131.97
2023-07-11T21:44:05.863Z,101135.53
2023-07-11T21:46:36.358Z,101131.16
2023-07-11T21:49:05.119Z,101110.22
2023-07-11T21:51:34.141Z,101127.75
2023-07-11T21:54:04.441Z,101120.69
2023-07-11T21:56:33.254Z,101118.19
2023-07-11T21:59:02.899Z,101123.44
2023-07-11T22:01:31.554Z,101111.97
2023-07-11T22:04:01.946Z,101105.97
2023-07-11T22:06:32.736Z,101098.06
2023-07-11T22:09:01.282Z,101108.59
2023-07-11T22:11:31.198Z,101105.13
2023-07-11T22:13:59.690Z,101105.09
2023-07-11T22:16:30.590Z,101098.09
2023-07-11T22:18:59.462Z,101105.13
2023-07-11T22:21:28.356Z,101106.84
2023-07-11T22:23:59.790Z,101106.81
2023-07-11T22:26:32.234Z,101106.09
2023-07-11T22:29:02.868Z,101107.16
2023-07-11T22:31:31.987Z,101094.06
2023-07-11T22:34:00.534Z,101104.50
2023-07-11T22:36:29.193Z,101094.94
2023-07-11T22:38:57.657Z,101101.88
2023-07-11T22:41:25.993Z,101109.75
2023-07-11T22:43:55.758Z,101094.72
2023-07-11T22:46:24.572Z,101092.94
2023-07-11T22:48:53.031Z,101092.94
2023-07-11T22:51:21.616Z,101087.66
2023-07-11T22:53:50.065Z,101085.00
2023-07-11T22:56:20.864Z,101065.84
2023-07-11T22:58:50.151Z,101084.19
2023-07-11T23:01:21.791Z,101084.38
2023-07-11T23:03:50.408Z,101081.88
2023-07-11T23:06:22.360Z,101079.31
2023-07-11T23:08:51.612Z,101080.28
2023-07-11T23:11:20.990Z,101074.13
2023-07-11T23:13:50.101Z,101070.59
2023-07-11T23:16:28.565Z,101066.97
2023-07-11T23:18:57.848Z,101066.91
2023-07-11T23:21:26.305Z,101069.44
2023-07-11T23:23:55.753Z,101079.88
2023-07-11T23:26:25.116Z,101062.38
2023-07-11T23:28:53.720Z,101077.09
2023-07-11T23:31:23.505Z,101058.69
2023-07-11T23:33:52.025Z,101063.69
2023-07-11T23:36:22.528Z,101069.75
2023-07-11T23:38:52.603Z,101065.31
2023-07-11T23:41:21.786Z,101053.91
2023-07-11T23:43:53.058Z,101063.50
2023-07-11T23:46:27.053Z,101055.59
2023-07-11T23:48:56.139Z,101045.97
2023-07-11T23:51:26.587Z,101055.56
2023-07-11T23:53:55.233Z,101054.63
2023-07-11T23:56:25.793Z,101059.19
2023-07-11T23:58:54.914Z,101051.44
